createdAt,value
2022-08-26T00:00:19.787Z,25.90
2022-08-26T00:02:24.526Z,25.70
2022-08-26T00:04:29.394Z,25.70
2022-08-26T00:06:34.895Z,25.60
2022-08-26T00:08:40.841Z,25.60
2022-08-26T00:10:46.179Z,25.60
2022-08-26T00:12:51.170Z,25.60
2022-08-26T00:14:55.532Z,25.60
2022-08-26T00:17:00.636Z,25.50
2022-08-26T00:19:05.162Z,25.40
2022-08-26T00:21:11.186Z,25.40
2022-08-26T00:23:16.221Z,25.40
2022-08-26T00:25:22.448Z,25.40
2022-08-26T00:27:26.835Z,25.20
2022-08-26T00:29:35.553Z,25.20
2022-08-26T00:31:42.300Z,25.20
2022-08-26T00:33:46.814Z,25.20
2022-08-26T00:35:51.605Z,25.10
2022-08-26T00:37:56.197Z,25.20
2022-08-26T00:40:00.993Z,25.10
2022-08-26T00:42:11.338Z,25.00
2022-08-26T00:44:15.617Z,25.00
2022-08-26T00:46:23.456Z,25.00
2022-08-26T00:48:31.932Z,25.10
2022-08-26T00:50:39.635Z,25.20
2022-08-26T00:52:45.078Z,25.20
2022-08-26T00:54:58.230Z,25.10
2022-08-26T00:57:15.988Z,25.10
2022-08-26T00:59:23.094Z,25.20
2022-08-26T01:01:28.462Z,25.00
2022-08-26T01:03:35.937Z,25.00
2022-08-26T01:05:40.820Z,24.80
2022-08-26T01:07:45.336Z,24.70
2022-08-26T01:09:50.267Z,24.70
2022-08-26T01:11:58.851Z,24.60
2022-08-26T01:14:05.455Z,24.60
2022-08-26T01:16:14.266Z,24.50
2022-08-26T01:18:19.863Z,24.50
2022-08-26T01:20:32.738Z,24.60
2022-08-26T01:22:47.480Z,24.60
2022-08-26T01:24:52.688Z,24.60
2022-08-26T01:26:59.828Z,24.50
2022-08-26T01:29:06.247Z,24.50
2022-08-26T01:31:14.916Z,24.50
2022-08-26T01:33:24.022Z,24.40
2022-08-26T01:35:29.465Z,24.30
2022-08-26T01:37:38.908Z,24.20
2022-08-26T01:39:48.701Z,24.10
2022-08-26T01:41:57.001Z,24.10
2022-08-26T01:44:02.500Z,24.20
2022-08-26T01:46:07.909Z,24.10
2022-08-26T01:48:21.173Z,24.10
2022-08-26T01:50:30.196Z,24.00
2022-08-26T01:52:39.284Z,24.00
2022-08-26T01:54:46.361Z,24.00
2022-08-26T01:56:56.093Z,24.00
2022-08-26T01:59:04.699Z,23.80
2022-08-26T02:01:09.764Z,23.80
2022-08-26T02:03:18.382Z,23.80
2022-08-26T02:05:23.366Z,23.70
2022-08-26T02:07:28.794Z,23.80
2022-08-26T02:09:33.348Z,23.80
2022-08-26T02:11:47.881Z,23.80
2022-08-26T02:13:57.355Z,23.70
2022-08-26T02:16:04.028Z,23.60
2022-08-26T02:18:14.006Z,23.60
2022-08-26T02:20:20.802Z,23.70
2022-08-26T02:22:25.689Z,23.70
2022-08-26T02:24:32.392Z,23.60
2022-08-26T02:26:36.895Z,23.60
2022-08-26T02:28:50.901Z,23.60
2022-08-26T02:30:55.711Z,23.50
2022-08-26T02:33:01.734Z,23.50
2022-08-26T02:35:07.503Z,23.50
2022-08-26T02:37:13.239Z,23.60
2022-08-26T02:39:21.958Z,23.60
2022-08-26T02:41:26.741Z,23.70
2022-08-26T02:43:32.886Z,23.70
2022-08-26T02:45:40.251Z,23.60
2022-08-26T02:47:45.009Z,23.60
2022-08-26T02:49:50.847Z,23.70
2022-08-26T02:51:55.496Z,23.70
2022-08-26T02:54:00.472Z,23.70
2022-08-26T02:56:08.473Z,23.80
2022-08-26T02:58:12.593Z,23.80
2022-08-26T03:00:17.802Z,23.70
2022-08-26T03:02:24.069Z,23.70
2022-08-26T03:04:29.029Z,23.70
2022-08-26T03:06:38.524Z,23.70
2022-08-26T03:08:45.224Z,23.80
2022-08-26T03:10:49.848Z,23.80
2022-08-26T03:12:54.175Z,23.70
2022-08-26T03:14:58.886Z,23.70
2022-08-26T03:17:03.045Z,23.60
2022-08-26T03:19:10.682Z,23.70
2022-08-26T03:21:17.852Z,23.60
2022-08-26T03:23:22.633Z,23.50
2022-08-26T03:25:27.895Z,23.60
2022-08-26T03:27:33.201Z,23.60
2022-08-26T03:29:54.931Z,23.50
2022-08-26T03:32:00.838Z,23.40
2022-08-26T03:34:06.085Z,23.40
2022-08-26T03:36:12.420Z,23.40
2022-08-26T03:38:17.466Z,23.40
2022-08-26T03:40:22.600Z,23.40
2022-08-26T03:42:27.191Z,23.40
2022-08-26T03:44:32.446Z,23.40
2022-08-26T03:46:37.123Z,23.40
2022-08-26T03:48:42.303Z,23.30
2022-08-26T03:50:48.830Z,23.20
2022-08-26T03:52:57.404Z,23.00
2022-08-26T03:55:01.760Z,23.10
2022-08-26T03:57:09.294Z,23.10
2022-08-26T03:59:13.972Z,23.10
2022-08-26T04:01:19.041Z,23.10
2022-08-26T04:03:37.156Z,23.10
2022-08-26T04:05:41.885Z,23.10
2022-08-26T04:07:46.505Z,23.20
2022-08-26T04:09:56.119Z,23.30
2022-08-26T04:12:00.420Z,23.40
2022-08-26T04:14:07.837Z,23.40
2022-08-26T04:16:12.499Z,23.60
2022-08-26T04:18:17.265Z,23.50
2022-08-26T04:20:28.670Z,23.40
2022-08-26T04:22:32.963Z,23.60
2022-08-26T04:24:39.588Z,23.60
2022-08-26T04:26:45.470Z,23.70
2022-08-26T04:28:50.650Z,23.60
2022-08-26T04:30:55.149Z,23.70
2022-08-26T04:32:59.697Z,23.90
2022-08-26T04:35:04.165Z,23.70
2022-08-26T04:37:09.908Z,23.70
2022-08-26T04:39:16.870Z,23.60
2022-08-26T04:41:23.812Z,23.70
2022-08-26T04:43:31.426Z,23.90
2022-08-26T04:45:37.656Z,24.10
2022-08-26T04:47:43.274Z,24.20
2022-08-26T04:49:47.621Z,24.10
2022-08-26T04:51:52.871Z,24.10
2022-08-26T04:53:57.548Z,24.10
2022-08-26T04:56:01.861Z,24.30
2022-08-26T04:58:10.200Z,24.30
2022-08-26T05:00:16.900Z,24.40
2022-08-26T05:02:21.306Z,24.30
2022-08-26T05:04:25.577Z,24.40
2022-08-26T05:06:30.123Z,24.50
2022-08-26T05:08:41.195Z,24.60
2022-08-26T05:10:48.088Z,24.60
2022-08-26T05:12:52.270Z,24.70
2022-08-26T05:14:57.908Z,24.80
2022-08-26T05:17:03.895Z,25.00
2022-08-26T05:19:09.153Z,25.10
2022-08-26T05:21:20.114Z,25.20
2022-08-26T05:23:25.343Z,25.30
2022-08-26T05:25:30.053Z,25.40
2022-08-26T05:27:34.143Z,25.60
2022-08-26T05:29:38.346Z,25.80
2022-08-26T05:31:43.117Z,26.00
2022-08-26T05:33:49.071Z,26.10
2022-08-26T05:35:54.520Z,26.00
2022-08-26T05:38:16.446Z,26.10
2022-08-26T05:40:21.140Z,26.30
2022-08-26T05:42:25.388Z,26.20
2022-08-26T05:44:29.620Z,26.10
2022-08-26T05:46:53.737Z,26.20
2022-08-26T05:49:00.234Z,26.30
2022-08-26T05:51:06.586Z,26.70
2022-08-26T05:53:12.883Z,26.80
2022-08-26T05:55:17.627Z,26.70
2022-08-26T05:57:23.194Z,27.00
2022-08-26T05:59:28.163Z,27.30
2022-08-26T06:01:35.908Z,27.50
2022-08-26T06:03:44.822Z,27.50
2022-08-26T06:05:51.410Z,27.50
2022-08-26T06:08:14.789Z,27.70
2022-08-26T06:10:32.015Z,27.90
2022-08-26T06:12:37.533Z,28.00
2022-08-26T06:14:41.738Z,28.20
2022-08-26T06:16:46.286Z,28.30
2022-08-26T06:18:51.734Z,28.30
2022-08-26T06:20:58.354Z,28.60
2022-08-26T06:23:20.409Z,28.80
2022-08-26T06:25:41.471Z,28.90
2022-08-26T06:27:48.950Z,28.80
2022-08-26T06:29:53.693Z,28.90
2022-08-26T06:31:58.804Z,28.80
2022-08-26T06:34:07.249Z,28.90
2022-08-26T06:36:20.593Z,29.30
2022-08-26T06:38:25.198Z,29.80
2022-08-26T06:40:29.547Z,29.70
2022-08-26T06:42:34.202Z,30.00
2022-08-26T06:44:38.402Z,30.00
2022-08-26T06:46:45.744Z,30.00
2022-08-26T06:48:50.179Z,30.00
2022-08-26T06:51:03.724Z,30.10
2022-08-26T06:53:09.828Z,30.30
2022-08-26T06:55:14.180Z,30.30
2022-08-26T06:57:18.377Z,30.20
2022-08-26T06:59:22.599Z,30.40
2022-08-26T07:01:29.118Z,30.40
2022-08-26T07:03:35.041Z,30.60
2022-08-26T07:05:44.090Z,30.60
2022-08-26T07:07:49.635Z,30.80
2022-08-26T07:09:56.551Z,30.90
2022-08-26T07:12:01.987Z,30.90
2022-08-26T07:14:07.953Z,30.80
2022-08-26T07:16:14.299Z,30.70
2022-08-26T07:18:18.678Z,31.00
2022-08-26T07:20:26.527Z,31.30
2022-08-26T07:22:31.568Z,31.20
2022-08-26T07:24:38.292Z,31.00
2022-08-26T07:26:43.936Z,31.40
2022-08-26T07:28:50.670Z,31.50
2022-08-26T07:30:57.722Z,31.30
2022-08-26T07:33:03.383Z,31.60
2022-08-26T07:35:09.434Z,31.60
2022-08-26T07:37:13.704Z,31.80
2022-08-26T07:39:18.315Z,31.80
2022-08-26T07:41:24.619Z,32.10
2022-08-26T07:43:30.971Z,32.10
2022-08-26T07:45:35.338Z,32.10
2022-08-26T07:47:39.838Z,32.00
2022-08-26T07:49:44.874Z,32.20
2022-08-26T07:51:49.305Z,32.20
2022-08-26T07:53:54.286Z,31.90
2022-08-26T07:55:59.162Z,32.30
2022-08-26T07:58:03.767Z,32.40
2022-08-26T08:00:16.170Z,32.60
2022-08-26T08:02:20.438Z,32.60
2022-08-26T08:04:26.771Z,32.60
2022-08-26T08:06:31.142Z,32.90
2022-08-26T08:08:36.545Z,33.00
2022-08-26T08:10:41.518Z,32.90
2022-08-26T08:12:53.799Z,32.90
2022-08-26T08:14:58.310Z,32.80
2022-08-26T08:17:05.215Z,32.70
2022-08-26T08:19:09.619Z,32.60
2022-08-26T08:21:23.967Z,32.90
2022-08-26T08:23:28.633Z,33.10
2022-08-26T08:25:34.493Z,33.40
2022-08-26T08:27:41.284Z,33.40
2022-08-26T08:29:46.631Z,33.70
2022-08-26T08:31:56.983Z,33.50
2022-08-26T08:34:03.801Z,33.10
2022-08-26T08:36:09.368Z,33.00
2022-08-26T08:38:13.573Z,32.90
2022-08-26T08:40:18.639Z,33.10
2022-08-26T08:42:39.274Z,33.20
2022-08-26T08:44:52.344Z,33.40
2022-08-26T08:47:00.333Z,33.30
2022-08-26T08:49:06.157Z,33.30
2022-08-26T08:51:20.071Z,33.70
2022-08-26T08:53:31.833Z,33.70
2022-08-26T08:55:46.229Z,33.80
2022-08-26T08:58:03.542Z,33.50
2022-08-26T09:00:13.868Z,33.60
2022-08-26T09:02:27.279Z,33.90
2022-08-26T09:04:57.723Z,34.10
2022-08-26T09:07:05.663Z,34.20
2022-08-26T09:09:18.905Z,33.80
2022-08-26T09:11:23.197Z,33.50
2022-08-26T09:13:29.010Z,33.70
2022-08-26T09:15:47.777Z,33.60
2022-08-26T09:18:01.566Z,34.00
2022-08-26T09:20:20.644Z,34.00
2022-08-26T09:22:33.336Z,33.80
2022-08-26T09:24:41.520Z,33.80
2022-08-26T09:26:48.636Z,34.10
2022-08-26T09:29:01.187Z,33.60
2022-08-26T09:31:13.690Z,33.40
2022-08-26T09:33:19.591Z,33.40
2022-08-26T09:35:30.986Z,33.30
2022-08-26T09:37:39.670Z,33.20
2022-08-26T09:39:43.853Z,32.90
2022-08-26T09:42:04.473Z,32.60
2022-08-26T09:44:18.391Z,32.70
2022-08-26T09:46:29.190Z,33.30
2022-08-26T09:48:37.680Z,33.80
2022-08-26T09:50:57.116Z,34.10
2022-08-26T09:53:13.069Z,34.20
2022-08-26T09:55:23.665Z,34.10
2022-08-26T09:57:30.350Z,33.90
2022-08-26T09:59:36.380Z,33.80
2022-08-26T10:01:43.166Z,33.80
2022-08-26T10:03:47.696Z,34.10
2022-08-26T10:06:00.227Z,34.30
2022-08-26T10:08:22.996Z,34.30
2022-08-26T10:10:32.791Z,34.50
2022-08-26T10:12:41.393Z,34.70
2022-08-26T10:14:50.500Z,34.80
2022-08-26T10:16:58.463Z,35.30
2022-08-26T10:19:08.720Z,35.20
2022-08-26T10:21:21.296Z,35.00
2022-08-26T10:23:28.611Z,35.20
2022-08-26T10:25:39.258Z,35.10
2022-08-26T10:27:53.484Z,34.70
2022-08-26T10:30:05.167Z,34.40
2022-08-26T10:32:14.067Z,34.40
2022-08-26T10:34:21.215Z,34.40
2022-08-26T10:37:10.639Z,34.30
2022-08-26T10:39:15.963Z,34.10
2022-08-26T10:41:24.581Z,34.10
2022-08-26T10:43:31.930Z,34.30
2022-08-26T10:45:40.197Z,34.40
2022-08-26T10:47:50.489Z,34.70
2022-08-26T10:50:00.003Z,34.60
2022-08-26T10:52:17.048Z,34.30
2022-08-26T10:54:28.299Z,34.20
2022-08-26T10:56:44.770Z,34.10
2022-08-26T10:58:59.975Z,34.10
2022-08-26T11:01:29.153Z,34.20
2022-08-26T11:03:42.009Z,34.00
2022-08-26T11:05:46.165Z,33.80
2022-08-26T11:07:54.935Z,33.80
2022-08-26T11:10:00.460Z,33.80
2022-08-26T11:12:10.023Z,33.60
2022-08-26T11:14:40.615Z,33.60
2022-08-26T11:16:58.693Z,33.30
2022-08-26T11:19:03.210Z,33.50
2022-08-26T11:21:52.580Z,33.20
2022-08-26T11:23:57.876Z,33.30
2022-08-26T11:26:35.672Z,33.30
2022-08-26T11:28:44.174Z,33.50
2022-08-26T11:30:56.925Z,33.60
2022-08-26T11:33:02.081Z,33.70
2022-08-26T11:35:09.396Z,33.80
2022-08-26T11:37:16.593Z,33.80
2022-08-26T11:39:29.819Z,34.00
2022-08-26T11:41:35.612Z,34.10
2022-08-26T11:43:42.677Z,34.20
2022-08-26T11:45:49.551Z,34.10
2022-08-26T11:47:54.948Z,34.00
2022-08-26T11:50:11.364Z,34.10
2022-08-26T11:52:20.875Z,34.40
2022-08-26T11:54:35.190Z,34.40
2022-08-26T11:56:42.874Z,34.60
2022-08-26T11:58:49.153Z,34.20
2022-08-26T12:00:57.965Z,34.00
2022-08-26T12:03:06.297Z,33.80
2022-08-26T12:05:10.848Z,33.70
2022-08-26T12:07:16.637Z,33.80
2022-08-26T12:09:24.863Z,34.10
2022-08-26T12:11:32.088Z,33.90
2022-08-26T12:13:39.075Z,33.90
2022-08-26T12:15:52.801Z,34.00
2022-08-26T12:18:18.267Z,34.10
2022-08-26T12:20:48.355Z,33.90
2022-08-26T12:22:52.625Z,33.70
2022-08-26T12:24:59.834Z,33.60
2022-08-26T12:27:18.019Z,33.70
2022-08-26T12:29:28.211Z,33.80
2022-08-26T12:31:39.484Z,33.80
2022-08-26T12:33:44.254Z,33.90
2022-08-26T12:35:51.443Z,34.00
2022-08-26T12:37:58.894Z,34.10
2022-08-26T12:40:35.540Z,34.10
2022-08-26T12:42:43.823Z,34.30
2022-08-26T12:44:53.805Z,34.40
2022-08-26T12:47:04.367Z,34.60
2022-08-26T12:49:09.404Z,34.60
2022-08-26T12:51:23.214Z,34.40
2022-08-26T12:53:29.458Z,34.30
2022-08-26T12:55:40.461Z,34.20
2022-08-26T12:57:47.476Z,34.00
2022-08-26T12:59:51.664Z,33.90
2022-08-26T13:01:56.060Z,34.00
2022-08-26T13:04:00.419Z,34.00
2022-08-26T13:06:25.833Z,34.00
2022-08-26T13:08:31.420Z,34.00
2022-08-26T13:10:36.798Z,33.80
2022-08-26T13:12:41.426Z,33.80
2022-08-26T13:14:47.167Z,33.80
2022-08-26T13:16:51.730Z,33.80
2022-08-26T13:18:58.870Z,34.00
2022-08-26T13:21:10.257Z,34.10
2022-08-26T13:23:15.309Z,34.10
2022-08-26T13:25:19.850Z,33.70
2022-08-26T13:27:26.281Z,33.60
2022-08-26T13:29:30.810Z,33.70
2022-08-26T13:31:39.789Z,33.50
2022-08-26T13:33:44.581Z,33.40
2022-08-26T13:35:49.439Z,33.10
2022-08-26T13:37:53.760Z,33.10
2022-08-26T13:39:58.328Z,33.10
2022-08-26T13:42:02.448Z,33.00
2022-08-26T13:44:06.673Z,33.20
2022-08-26T13:46:10.969Z,33.30
2022-08-26T13:48:21.536Z,33.20
2022-08-26T13:50:27.549Z,32.90
2022-08-26T13:52:31.753Z,32.90
2022-08-26T13:54:36.257Z,32.90
2022-08-26T13:56:40.484Z,33.00
2022-08-26T13:58:44.595Z,32.80
2022-08-26T14:00:50.353Z,32.70
2022-08-26T14:02:54.612Z,32.90
2022-08-26T14:05:00.206Z,32.90
2022-08-26T14:07:04.565Z,33.00
2022-08-26T14:09:08.773Z,32.90
2022-08-26T14:11:16.034Z,33.00
2022-08-26T14:13:20.484Z,33.00
2022-08-26T14:15:24.720Z,33.10
2022-08-26T14:17:32.863Z,33.10
2022-08-26T14:19:37.771Z,33.10
2022-08-26T14:21:43.464Z,33.10
2022-08-26T14:23:47.981Z,33.30
2022-08-26T14:25:52.222Z,33.30
2022-08-26T14:27:56.863Z,33.10
2022-08-26T14:30:01.005Z,32.90
2022-08-26T14:32:11.548Z,32.80
2022-08-26T14:34:15.931Z,32.80
2022-08-26T14:36:29.165Z,32.90
2022-08-26T14:38:34.778Z,33.00
2022-08-26T14:40:40.256Z,32.80
2022-08-26T14:42:49.150Z,32.70
2022-08-26T14:45:00.179Z,32.80
2022-08-26T14:47:06.725Z,32.90
2022-08-26T14:49:11.232Z,32.80
2022-08-26T14:51:15.396Z,32.70
2022-08-26T14:53:48.746Z,32.60
2022-08-26T14:55:54.407Z,32.70
2022-08-26T14:57:58.589Z,32.60
2022-08-26T15:00:02.722Z,32.70
2022-08-26T15:02:08.172Z,32.70
2022-08-26T15:04:12.759Z,32.70
2022-08-26T15:06:17.747Z,32.70
2022-08-26T15:08:21.920Z,32.60
2022-08-26T15:10:26.126Z,32.70
2022-08-26T15:12:31.676Z,32.70
2022-08-26T15:14:35.825Z,32.70
2022-08-26T15:16:39.931Z,32.80
2022-08-26T15:18:44.151Z,32.80
2022-08-26T15:20:48.400Z,32.60
2022-08-26T15:22:52.467Z,32.30
2022-08-26T15:24:58.701Z,32.30
2022-08-26T15:27:02.817Z,32.40
2022-08-26T15:29:08.669Z,32.40
2022-08-26T15:31:13.028Z,32.30
2022-08-26T15:33:17.183Z,32.30
2022-08-26T15:35:21.323Z,32.30
2022-08-26T15:37:25.560Z,32.20
2022-08-26T15:39:30.028Z,32.10
2022-08-26T15:41:35.283Z,32.20
2022-08-26T15:43:39.836Z,32.30
2022-08-26T15:45:45.311Z,32.20
2022-08-26T15:48:01.189Z,32.10
2022-08-26T15:50:06.744Z,32.00
2022-08-26T15:52:10.962Z,32.10
2022-08-26T15:54:16.720Z,32.10
2022-08-26T15:56:21.022Z,32.10
2022-08-26T15:58:27.212Z,32.00
2022-08-26T16:00:31.398Z,32.00
2022-08-26T16:02:36.918Z,31.90
2022-08-26T16:04:41.919Z,31.90
2022-08-26T16:06:50.395Z,32.00
2022-08-26T16:08:55.447Z,32.00
2022-08-26T16:11:03.503Z,31.80
2022-08-26T16:13:10.350Z,31.70
2022-08-26T16:15:17.139Z,31.70
2022-08-26T16:17:21.289Z,31.70
2022-08-26T16:19:26.871Z,31.70
2022-08-26T16:21:30.939Z,31.70
2022-08-26T16:23:36.123Z,31.70
2022-08-26T16:25:40.243Z,31.70
2022-08-26T16:27:44.599Z,31.70
2022-08-26T16:29:48.825Z,31.60
2022-08-26T16:31:53.872Z,31.60
2022-08-26T16:33:58.071Z,31.60
2022-08-26T16:36:04.068Z,31.60
2022-08-26T16:38:09.001Z,31.50
2022-08-26T16:40:13.650Z,31.50
2022-08-26T16:42:17.896Z,31.50
2022-08-26T16:44:22.403Z,31.40
2022-08-26T16:46:27.223Z,31.50
2022-08-26T16:48:31.434Z,31.50
2022-08-26T16:50:35.593Z,31.40
2022-08-26T16:52:41.815Z,31.40
2022-08-26T16:54:47.100Z,31.30
2022-08-26T16:56:51.465Z,31.30
2022-08-26T16:58:55.838Z,31.30
2022-08-26T17:01:00.111Z,31.30
2022-08-26T17:03:04.765Z,31.20
2022-08-26T17:05:10.353Z,31.20
2022-08-26T17:07:14.674Z,31.20
2022-08-26T17:09:20.272Z,31.20
2022-08-26T17:11:24.505Z,31.10
2022-08-26T17:13:35.474Z,31.10
2022-08-26T17:15:40.740Z,31.10
2022-08-26T17:17:45.272Z,31.10
2022-08-26T17:19:49.419Z,31.00
2022-08-26T17:21:53.606Z,31.00
2022-08-26T17:23:57.870Z,31.00
2022-08-26T17:26:03.590Z,30.90
2022-08-26T17:28:13.236Z,30.70
2022-08-26T17:30:18.425Z,30.70
2022-08-26T17:32:22.859Z,30.70
2022-08-26T17:34:27.141Z,30.60
2022-08-26T17:36:31.418Z,30.30
2022-08-26T17:38:35.882Z,29.90
2022-08-26T17:40:40.954Z,29.80
2022-08-26T17:42:47.020Z,29.70
2022-08-26T17:44:51.336Z,29.60
2022-08-26T17:46:55.625Z,29.60
2022-08-26T17:48:59.857Z,29.60
2022-08-26T17:51:08.161Z,29.60
2022-08-26T17:53:18.898Z,29.60
2022-08-26T17:55:23.685Z,29.50
2022-08-26T17:57:28.419Z,29.30
2022-08-26T17:59:34.936Z,29.20
2022-08-26T18:01:39.969Z,29.10
2022-08-26T18:03:44.331Z,29.00
2022-08-26T18:05:49.823Z,28.90
2022-08-26T18:07:54.017Z,28.90
2022-08-26T18:09:58.546Z,28.90
2022-08-26T18:12:02.887Z,28.90
2022-08-26T18:14:07.249Z,28.90
2022-08-26T18:16:13.218Z,28.90
2022-08-26T18:18:17.473Z,28.90
2022-08-26T18:20:22.296Z,28.90
2022-08-26T18:22:26.671Z,28.90
2022-08-26T18:24:32.285Z,28.70
2022-08-26T18:26:38.423Z,28.70
2022-08-26T18:28:42.585Z,28.60
2022-08-26T18:30:47.482Z,28.60
2022-08-26T18:32:53.973Z,28.50
2022-08-26T18:34:58.182Z,28.50
2022-08-26T18:37:02.474Z,28.40
2022-08-26T18:39:08.087Z,28.30
2022-08-26T18:41:12.410Z,28.20
2022-08-26T18:43:17.070Z,28.20
2022-08-26T18:45:21.286Z,28.10
2022-08-26T18:47:25.534Z,27.90
2022-08-26T18:49:31.173Z,28.00
2022-08-26T18:51:36.840Z,27.90
2022-08-26T18:53:42.060Z,27.80
2022-08-26T18:55:46.498Z,27.80
2022-08-26T18:57:50.814Z,27.80
2022-08-26T18:59:55.603Z,27.90
2022-08-26T19:02:00.173Z,27.80
2022-08-26T19:04:07.099Z,27.80
2022-08-26T19:06:16.866Z,27.80
2022-08-26T19:08:22.367Z,27.90
2022-08-26T19:10:30.214Z,27.80
2022-08-26T19:12:35.518Z,27.70
2022-08-26T19:14:39.790Z,27.70
2022-08-26T19:16:47.306Z,27.70
2022-08-26T19:18:53.284Z,27.60
2022-08-26T19:20:57.838Z,27.60
2022-08-26T19:23:10.582Z,27.50
2022-08-26T19:25:25.789Z,27.60
2022-08-26T19:27:32.670Z,27.60
2022-08-26T19:29:40.145Z,27.70
2022-08-26T19:31:46.422Z,27.70
2022-08-26T19:33:52.378Z,27.70
2022-08-26T19:35:57.064Z,27.80
2022-08-26T19:38:06.373Z,27.80
2022-08-26T19:40:11.837Z,27.80
2022-08-26T19:42:16.595Z,27.80
2022-08-26T19:44:42.095Z,27.80
2022-08-26T19:46:49.064Z,27.80
2022-08-26T19:48:55.741Z,27.80
2022-08-26T19:51:00.263Z,27.80
2022-08-26T19:53:05.998Z,27.80
2022-08-26T19:55:12.666Z,27.80
2022-08-26T19:57:17.150Z,27.70
2022-08-26T19:59:21.781Z,27.60
2022-08-26T20:01:26.518Z,27.50
2022-08-26T20:03:30.818Z,27.50
2022-08-26T20:05:35.165Z,27.60
2022-08-26T20:07:40.129Z,27.60
2022-08-26T20:09:45.942Z,27.50
2022-08-26T20:11:52.074Z,27.40
2022-08-26T20:14:00.904Z,27.30
2022-08-26T20:16:05.897Z,27.20
2022-08-26T20:18:30.394Z,27.10
2022-08-26T20:20:51.723Z,26.90
2022-08-26T20:22:56.063Z,26.80
2022-08-26T20:25:01.722Z,26.70
2022-08-26T20:27:08.285Z,26.80
2022-08-26T20:29:14.452Z,26.80
2022-08-26T20:31:21.491Z,26.80
2022-08-26T20:33:25.842Z,26.90
2022-08-26T20:35:30.514Z,26.90
2022-08-26T20:37:35.767Z,26.90
2022-08-26T20:39:41.842Z,26.90
2022-08-26T20:41:55.410Z,26.90
2022-08-26T20:43:59.837Z,26.90
2022-08-26T20:46:08.341Z,26.90
2022-08-26T20:48:22.105Z,26.90
2022-08-26T20:50:26.530Z,26.80
2022-08-26T20:52:33.712Z,26.80
2022-08-26T20:54:38.365Z,26.90
2022-08-26T20:56:42.683Z,26.90
2022-08-26T20:58:48.365Z,26.90
2022-08-26T21:00:52.610Z,26.90
2022-08-26T21:02:57.520Z,26.90
2022-08-26T21:05:01.863Z,26.80
2022-08-26T21:07:07.259Z,26.70
2022-08-26T21:09:13.817Z,26.70
2022-08-26T21:11:20.189Z,26.70
2022-08-26T21:13:24.438Z,26.70
2022-08-26T21:15:30.071Z,26.60
2022-08-26T21:17:35.658Z,26.50
2022-08-26T21:19:39.933Z,26.60
2022-08-26T21:21:44.540Z,26.50
2022-08-26T21:23:48.982Z,26.50
2022-08-26T21:25:53.332Z,26.40
2022-08-26T21:27:57.662Z,26.30
2022-08-26T21:30:01.924Z,26.30
2022-08-26T21:32:10.442Z,26.30
2022-08-26T21:34:20.600Z,26.30
2022-08-26T21:36:25.725Z,26.20
2022-08-26T21:38:31.229Z,26.20
2022-08-26T21:40:38.569Z,26.10
2022-08-26T21:42:51.475Z,26.10
2022-08-26T21:44:56.083Z,26.00
2022-08-26T21:47:00.253Z,26.00
2022-08-26T21:49:08.873Z,26.00
2022-08-26T21:51:14.992Z,26.00
2022-08-26T21:53:19.533Z,25.90
2022-08-26T21:55:23.764Z,25.80
2022-08-26T21:57:29.178Z,25.80
2022-08-26T21:59:33.695Z,25.80
2022-08-26T22:01:38.735Z,25.80
2022-08-26T22:03:47.445Z,25.80
2022-08-26T22:05:53.842Z,25.80
2022-08-26T22:07:58.060Z,25.90
2022-08-26T22:10:02.463Z,25.80
2022-08-26T22:12:10.202Z,25.80
2022-08-26T22:14:15.174Z,25.90
2022-08-26T22:16:19.374Z,25.80
2022-08-26T22:18:23.652Z,25.90
2022-08-26T22:20:27.877Z,25.80
2022-08-26T22:22:33.523Z,25.80
2022-08-26T22:24:37.972Z,25.90
2022-08-26T22:26:42.230Z,25.80
2022-08-26T22:28:46.685Z,25.60
2022-08-26T22:30:51.634Z,25.60
2022-08-26T22:32:55.924Z,25.50
2022-08-26T22:35:00.199Z,25.40
2022-08-26T22:37:04.629Z,25.30
2022-08-26T22:39:10.648Z,25.20
2022-08-26T22:41:15.446Z,25.20
2022-08-26T22:43:20.491Z,25.10
2022-08-26T22:45:24.744Z,25.10
2022-08-26T22:47:29.195Z,25.10
2022-08-26T22:49:33.367Z,25.20
2022-08-26T22:51:37.795Z,25.20
2022-08-26T22:53:42.313Z,25.20
2022-08-26T22:55:48.361Z,25.20
2022-08-26T22:57:52.664Z,25.20
2022-08-26T22:59:56.983Z,25.20
2022-08-26T23:02:01.100Z,25.20
2022-08-26T23:04:06.585Z,25.20
2022-08-26T23:06:12.029Z,25.10
2022-08-26T23:08:16.606Z,25.10
2022-08-26T23:10:20.986Z,25.00
2022-08-26T23:12:27.695Z,25.10
2022-08-26T23:14:33.616Z,25.10
2022-08-26T23:16:39.596Z,25.20
2022-08-26T23:18:43.999Z,25.20
2022-08-26T23:20:48.323Z,25.10
2022-08-26T23:22:53.495Z,25.00
2022-08-26T23:24:57.811Z,24.90
2022-08-26T23:27:03.971Z,24.90
2022-08-26T23:29:11.089Z,24.90
2022-08-26T23:31:16.505Z,25.00
2022-08-26T23:33:20.812Z,24.90
2022-08-26T23:35:24.949Z,24.90
2022-08-26T23:37:34.049Z,24.80
2022-08-26T23:39:40.091Z,25.00
2022-08-26T23:41:44.468Z,24.90
2022-08-26T23:43:49.040Z,25.00
2022-08-26T23:45:54.730Z,24.90
2022-08-26T23:47:59.201Z,25.00
2022-08-26T23:50:03.587Z,24.90
2022-08-26T23:52:25.914Z,25.00
2022-08-26T23:54:31.656Z,25.00
2022-08-26T23:56:35.889Z,24.90
2022-08-26T23:58:40.277Z,24.90
